Time;durP1;ratioP1;P1;durP2;ratioP2;P2;SDS_P1;SDS_P2;PMS_P1;PMS_P2;Temp;Humidity;BMP_temperature;BMP_pressure;BME280_temperature;BME280_humidity;BME280_pressure;Samples;Min_cycle;Max_cycle;Signal;HPM_P1;HPM_P2
2022/06/19 00:01:12;;;;;;;3.47;0.98;;;15.60;96.00;;;;;;4158028;28;20096;-63
2022/06/19 00:03:23;;;;;;;2.30;1.20;;;15.60;96.00;;;;;;4157219;28;20513;-64
2022/06/19 00:05:24;;;;;;;3.05;1.20;;;15.60;96.30;;;;;;4158157;28;20551;-66
2022/06/19 00:07:25;;;;;;;2.80;1.17;;;15.50;96.30;;;;;;4158193;28;20034;-63
2022/06/19 00:09:27;;;;;;;1.70;0.85;;;15.50;96.30;;;;;;4157670;28;20033;-64
2022/06/19 00:11:28;;;;;;;2.08;1.13;;;15.50;96.40;;;;;;4157632;28;20029;-65
2022/06/19 00:13:29;;;;;;;2.30;1.00;;;15.50;96.50;;;;;;4157717;28;20076;-68
2022/06/19 00:15:30;;;;;;;1.80;1.15;;;15.50;96.40;;;;;;4157211;28;20025;-66
2022/06/19 00:17:31;;;;;;;1.98;0.98;;;15.50;96.40;;;;;;4156384;28;20095;-71
2022/06/19 00:19:33;;;;;;;1.67;1.10;;;15.50;96.50;;;;;;4157227;28;20025;-64
2022/06/19 00:21:34;;;;;;;1.35;1.15;;;15.50;96.60;;;;;;4157692;28;20088;-63
2022/06/19 00:23:36;;;;;;;2.38;1.00;;;15.50;96.60;;;;;;4155969;28;20064;-62
2022/06/19 00:25:37;;;;;;;1.38;0.90;;;15.40;96.60;;;;;;4157609;28;20060;-68
2022/06/19 00:27:40;;;;;;;1.13;0.80;;;15.40;96.70;;;;;;4157411;28;20059;-63
2022/06/19 00:29:41;;;;;;;1.50;1.00;;;15.30;96.70;;;;;;4157462;28;20075;-64
2022/06/19 00:31:42;;;;;;;1.38;1.08;;;15.30;96.80;;;;;;4157073;28;20041;-70
2022/06/19 00:33:44;;;;;;;1.00;0.82;;;15.30;97.00;;;;;;4157677;28;20091;-64
2022/06/19 00:35:46;;;;;;;3.38;1.05;;;15.20;97.00;;;;;;4157415;28;20076;-63
2022/06/19 00:37:47;;;;;;;2.60;1.58;;;15.20;97.10;;;;;;4157170;28;20111;-63
2022/06/19 00:39:48;;;;;;;13.20;1.17;;;15.20;97.20;;;;;;4157354;28;20037;-64
2022/06/19 00:41:49;;;;;;;2.83;0.90;;;15.10;97.30;;;;;;4157175;28;20167;-64
2022/06/19 00:43:59;;;;;;;2.03;0.98;;;15.10;97.40;;;;;;4157262;28;20083;-63
2022/06/19 00:46:24;;;;;;;1.52;1.10;;;15.10;97.50;;;;;;4157189;28;20029;-69
2022/06/19 00:48:32;;;;;;;2.88;0.90;;;15.00;97.60;;;;;;4156569;28;20436;-62
2022/06/19 00:50:35;;;;;;;2.53;1.10;;;15.00;97.80;;;;;;4157110;28;20489;-63
2022/06/19 00:52:39;;;;;;;1.92;1.15;;;15.00;97.80;;;;;;4156999;28;20059;-65
2022/06/19 00:54:55;;;;;;;1.58;1.10;;;15.00;98.00;;;;;;4157077;28;20037;-71
2022/06/19 00:56:56;;;;;;;1.77;1.20;;;15.00;98.30;;;;;;4156495;28;20444;-63
2022/06/19 00:58:58;;;;;;;1.20;1.08;;;14.90;98.00;;;;;;4156154;28;20053;-65
2022/06/19 01:01:05;;;;;;;5.40;0.80;;;15.00;98.10;;;;;;4157183;28;20488;-67
2022/06/19 01:03:14;;;;;;;2.72;1.25;;;15.00;98.20;;;;;;4156493;28;20033;-67
2022/06/19 01:05:15;;;;;;;1.17;1.00;;;14.90;98.20;;;;;;4157322;28;20083;-63
2022/06/19 01:07:18;;;;;;;2.05;1.15;;;14.90;98.20;;;;;;4156815;28;20083;-62
2022/06/19 01:09:20;;;;;;;1.95;1.08;;;14.90;98.20;;;;;;4156734;28;20103;-63
2022/06/19 01:11:22;;;;;;;2.45;0.93;;;14.90;98.30;;;;;;4154819;28;20045;-63
2022/06/19 01:13:27;;;;;;;3.65;1.13;;;15.00;98.30;;;;;;4156540;28;20045;-63
2022/06/19 01:15:28;;;;;;;1.63;1.30;;;15.00;98.30;;;;;;4156416;28;20041;-64
2022/06/19 01:17:33;;;;;;;1.93;0.87;;;15.00;98.30;;;;;;4156759;28;20087;-68
2022/06/19 01:19:38;;;;;;;1.63;0.70;;;15.00;98.50;;;;;;4156376;28;20099;-64
2022/06/19 01:21:46;;;;;;;3.88;1.10;;;15.00;98.50;;;;;;4156117;28;20049;-64
2022/06/19 01:24:12;;;;;;;1.40;0.80;;;15.00;98.50;;;;;;4156192;28;20445;-65
2022/06/19 01:26:15;;;;;;;1.30;1.20;;;15.00;98.70;;;;;;4155046;28;20088;-63
2022/06/19 01:30:51;;;;;;;0.95;0.70;;;14.90;98.80;;;;;;4156511;28;20096;-64
2022/06/19 01:32:52;;;;;;;1.85;1.23;;;14.90;98.60;;;;;;4155981;28;20076;-66
2022/06/19 01:34:54;;;;;;;5.30;0.98;;;14.90;98.60;;;;;;4156752;28;20025;-65
2022/06/19 01:37:24;;;;;;;2.97;0.90;;;14.80;98.70;;;;;;4155973;28;20041;-65
2022/06/19 01:39:28;;;;;;;0.80;0.80;;;14.80;98.90;;;;;;4156358;28;20053;-66
2022/06/19 01:41:32;;;;;;;1.58;1.02;;;14.80;98.90;;;;;;4156014;28;20046;-62
2022/06/19 01:43:34;;;;;;;3.10;0.93;;;14.70;98.90;;;;;;4154829;28;20037;-65
2022/06/19 01:45:38;;;;;;;1.00;0.77;;;14.70;99.00;;;;;;4155796;28;20075;-65
2022/06/19 01:47:43;;;;;;;1.53;1.00;;;14.70;99.10;;;;;;4156356;28;20437;-62
2022/06/19 01:49:48;;;;;;;1.02;0.80;;;14.70;99.10;;;;;;4155945;28;20067;-68
2022/06/19 01:51:51;;;;;;;1.45;1.05;;;14.60;99.20;;;;;;4155936;28;20049;-63
2022/06/19 01:53:59;;;;;;;4.47;0.83;;;14.60;99.30;;;;;;4155942;28;20040;-62
2022/06/19 01:56:02;;;;;;;1.97;1.20;;;14.60;99.50;;;;;;4155308;28;20788;-67
2022/06/19 01:58:04;;;;;;;6.77;1.03;;;14.60;99.50;;;;;;4155901;28;20052;-64
2022/06/19 02:00:06;;;;;;;2.40;1.00;;;14.60;99.90;;;;;;4154659;28;20037;-63
2022/06/19 02:02:10;;;;;;;1.40;0.90;;;14.50;99.70;;;;;;4156305;28;20025;-64
2022/06/19 02:04:11;;;;;;;1.40;0.90;;;14.50;99.80;;;;;;4156431;28;20038;-68
2022/06/19 02:06:16;;;;;;;3.73;1.00;;;14.60;99.80;;;;;;4156532;28;20087;-64
2022/06/19 02:08:18;;;;;;;2.47;1.07;;;14.60;99.90;;;;;;4155514;28;20103;-64
2022/06/19 02:10:21;;;;;;;3.57;1.00;;;14.60;99.90;;;;;;4155773;28;20033;-63
2022/06/19 02:12:25;;;;;;;5.47;1.08;;;14.50;99.90;;;;;;4155596;28;20084;-64
2022/06/19 02:14:28;;;;;;;2.33;1.00;;;14.50;99.90;;;;;;4156142;28;20083;-65
2022/06/19 02:16:30;;;;;;;2.33;1.10;;;14.50;99.90;;;;;;4155292;28;20646;-64
2022/06/19 02:18:38;;;;;;;1.80;1.20;;;14.50;99.90;;;;;;4155988;28;20833;-65
2022/06/19 02:20:39;;;;;;;2.53;1.27;;;14.50;99.90;;;;;;4148168;28;20034;-63
2022/06/19 02:22:40;;;;;;;3.97;0.80;;;14.50;99.90;;;;;;4139422;28;20046;-62
2022/06/19 02:24:42;;;;;;;1.00;0.80;;;14.50;99.90;;;;;;4141132;28;20463;-63
2022/06/19 02:26:44;;;;;;;1.13;0.80;;;14.50;99.90;;;;;;4142671;28;20100;-62
2022/06/19 02:28:49;;;;;;;6.40;2.20;;;14.40;99.90;;;;;;4144673;28;20033;-64
2022/06/19 02:30:50;;;;;;;9.40;3.03;;;14.50;99.90;;;;;;4155986;28;20037;-67
2022/06/19 02:32:52;;;;;;;1.43;0.90;;;14.50;99.90;;;;;;4155357;28;20532;-71
2022/06/19 02:34:53;;;;;;;5.70;2.05;;;14.50;99.90;;;;;;4155852;28;20126;-63
2022/06/19 02:36:57;;;;;;;5.13;1.33;;;14.40;99.90;;;;;;4155788;28;20942;-66
2022/06/19 02:39:05;;;;;;;2.20;1.27;;;14.50;99.90;;;;;;4155604;28;20473;-62
2022/06/19 02:41:30;;;;;;;1.57;1.00;;;14.50;99.90;;;;;;4158171;28;20041;-63
2022/06/19 02:43:33;;;;;;;2.70;1.05;;;14.50;99.90;;;;;;4146401;28;20478;-66
2022/06/19 02:45:38;;;;;;;1.07;0.93;;;14.50;99.90;;;;;;4158731;28;20034;-66
2022/06/19 02:47:39;;;;;;;1.08;0.82;;;14.50;99.90;;;;;;4158993;28;20050;-64
2022/06/19 02:49:41;;;;;;;1.48;1.20;;;14.50;99.90;;;;;;4159093;28;20042;-66
2022/06/19 02:51:42;;;;;;;1.92;0.70;;;14.50;99.90;;;;;;4158484;28;20527;-64
2022/06/19 02:53:43;;;;;;;1.73;0.73;;;14.60;99.90;;;;;;4159003;28;20087;-65
2022/06/19 02:55:45;;;;;;;3.10;0.80;;;14.80;99.90;;;;;;4158575;28;20029;-66
2022/06/19 02:57:47;;;;;;;1.27;0.77;;;15.10;99.90;;;;;;4158851;28;20053;-67
2022/06/19 02:59:48;;;;;;;1.80;0.88;;;15.30;99.80;;;;;;4158404;28;20387;-66
2022/06/19 03:01:49;;;;;;;1.35;0.90;;;15.60;99.40;;;;;;4158717;28;20068;-68
2022/06/19 03:03:50;;;;;;;1.63;1.50;;;15.90;99.00;;;;;;4158902;28;20026;-64
2022/06/19 03:05:51;;;;;;;0.82;0.70;;;16.10;98.70;;;;;;4158525;28;20045;-66
2022/06/19 03:07:53;;;;;;;1.95;1.02;;;16.40;98.40;;;;;;4158686;28;20576;-66
2022/06/19 03:09:55;;;;;;;1.45;1.20;;;16.80;98.10;;;;;;4158077;28;20045;-64
2022/06/19 03:11:56;;;;;;;1.52;1.00;;;17.20;97.60;;;;;;4144930;28;20030;-68
2022/06/19 03:13:57;;;;;;;1.13;0.80;;;17.60;97.00;;;;;;4142035;28;20034;-66
2022/06/19 03:16:07;;;;;;;1.20;0.93;;;18.10;96.40;;;;;;4142233;28;20038;-67
2022/06/19 03:18:08;;;;;;;1.05;0.77;;;18.50;95.60;;;;;;4142412;28;20536;-66
2022/06/19 03:20:18;;;;;;;1.00;0.70;;;18.90;95.20;;;;;;4142530;28;20022;-63
2022/06/19 03:22:19;;;;;;;1.33;1.10;;;19.30;94.20;;;;;;4141965;28;20018;-65
2022/06/19 03:24:20;;;;;;;2.20;0.80;;;19.60;94.10;;;;;;4142029;28;20033;-65
2022/06/19 03:26:22;;;;;;;2.15;0.90;;;19.80;93.70;;;;;;4141950;28;20542;-67
2022/06/19 03:28:23;;;;;;;1.92;0.90;;;20.10;93.40;;;;;;4141959;28;20081;-67
2022/06/19 03:30:24;;;;;;;3.25;1.17;;;20.40;92.90;;;;;;4142644;28;20069;-64
2022/06/19 03:32:25;;;;;;;1.00;0.70;;;20.70;92.50;;;;;;4142657;28;20045;-66
2022/06/19 03:34:26;;;;;;;0.90;0.68;;;20.80;92.00;;;;;;4141714;28;20053;-64
2022/06/19 03:36:27;;;;;;;2.55;1.00;;;20.80;91.70;;;;;;4148244;28;20579;-65
2022/06/19 03:38:28;;;;;;;1.00;0.90;;;21.00;91.50;;;;;;4157942;28;20548;-64
2022/06/19 03:40:30;;;;;;;1.98;1.38;;;21.40;91.20;;;;;;4157900;28;20103;-64
2022/06/19 03:42:31;;;;;;;0.95;0.80;;;21.80;90.70;;;;;;4157691;28;20042;-64
2022/06/19 03:44:33;;;;;;;0.85;0.70;;;22.20;90.20;;;;;;4157909;28;20033;-67
2022/06/19 03:46:34;;;;;;;0.75;0.73;;;22.40;89.50;;;;;;4157728;28;20091;-64
2022/06/19 03:48:36;;;;;;;1.10;0.80;;;22.70;88.50;;;;;;4153786;28;20030;-64
2022/06/19 03:50:39;;;;;;;2.45;1.00;;;23.00;87.60;;;;;;4149043;28;20033;-64
2022/06/19 03:52:40;;;;;;;5.43;0.75;;;23.20;86.60;;;;;;4157111;28;20041;-65
2022/06/19 03:54:41;;;;;;;3.03;1.05;;;23.40;85.90;;;;;;4158060;28;20556;-64
2022/06/19 03:56:43;;;;;;;3.35;0.90;;;23.70;85.10;;;;;;4142633;28;20116;-65
2022/06/19 03:58:47;;;;;;;1.98;0.80;;;24.00;84.30;;;;;;4141272;28;20108;-64
2022/06/19 04:00:48;;;;;;;1.60;0.90;;;24.20;83.40;;;;;;4141714;28;20053;-66
2022/06/19 04:02:49;;;;;;;2.63;0.90;;;24.30;82.60;;;;;;4142363;28;20038;-64
2022/06/19 04:04:50;;;;;;;1.00;0.60;;;24.60;82.00;;;;;;4142204;28;20034;-64
2022/06/19 04:06:52;;;;;;;3.15;1.10;;;24.90;81.10;;;;;;4141421;28;20038;-65
2022/06/19 04:08:54;;;;;;;1.95;0.80;;;25.10;80.60;;;;;;4141460;28;20041;-65
2022/06/19 04:10:55;;;;;;;3.88;0.70;;;25.20;79.90;;;;;;4141045;28;20022;-65
2022/06/19 04:12:56;;;;;;;2.08;0.93;;;25.30;79.30;;;;;;4146683;28;20029;-65
2022/06/19 04:14:57;;;;;;;2.88;0.75;;;25.40;78.70;;;;;;4158112;28;20029;-65
2022/06/19 04:16:58;;;;;;;1.85;0.70;;;25.70;78.30;;;;;;4157418;28;20563;-69
2022/06/19 04:19:02;;;;;;;2.45;0.93;;;26.00;77.70;;;;;;4157357;28;20044;-64
2022/06/19 04:21:04;;;;;;;2.13;0.80;;;26.50;76.60;;;;;;4157578;28;20508;-67
2022/06/19 04:23:08;;;;;;;1.00;0.90;;;26.80;75.70;;;;;;4157613;28;20045;-65
2022/06/19 04:25:14;;;;;;;1.75;0.75;;;27.10;74.90;;;;;;4157111;28;20095;-66
2022/06/19 04:27:15;;;;;;;2.03;0.88;;;27.60;74.10;;;;;;4154412;28;20092;-65
2022/06/19 04:29:18;;;;;;;2.05;0.70;;;27.60;73.00;;;;;;4140909;28;20096;-63
2022/06/19 04:31:19;;;;;;;2.15;0.63;;;27.80;72.70;;;;;;4140813;28;20099;-65
2022/06/19 04:33:21;;;;;;;0.63;0.63;;;27.90;72.10;;;;;;4140788;28;20109;-64
2022/06/19 04:35:22;;;;;;;0.68;0.50;;;28.10;71.60;;;;;;4141210;28;20060;-62
2022/06/19 04:37:23;;;;;;;1.38;0.80;;;28.20;71.10;;;;;;4140693;28;20101;-64
2022/06/19 04:39:24;;;;;;;1.08;0.50;;;28.30;70.60;;;;;;4139916;28;20104;-65
2022/06/19 04:41:36;;;;;;;3.25;1.00;;;28.30;69.80;;;;;;4140571;28;20033;-63
2022/06/19 04:43:37;;;;;;;0.93;0.50;;;28.10;68.80;;;;;;4140585;28;20088;-64
2022/06/19 04:45:38;;;;;;;3.10;0.85;;;27.50;69.60;;;;;;4145704;28;20754;-67
2022/06/19 04:47:40;;;;;;;0.77;0.70;;;27.40;70.10;;;;;;4156637;28;20489;-65
2022/06/19 04:49:41;;;;;;;1.40;0.90;;;27.60;69.90;;;;;;4157645;28;20096;-71
2022/06/19 04:51:44;;;;;;;1.65;0.77;;;27.80;69.60;;;;;;4157155;28;20383;-65
2022/06/19 04:53:45;;;;;;;1.88;1.17;;;28.00;69.20;;;;;;4157074;28;20685;-68
2022/06/19 04:55:46;;;;;;;1.60;0.70;;;28.30;68.90;;;;;;4156521;28;20079;-64
2022/06/19 04:57:48;;;;;;;1.02;0.68;;;28.70;68.30;;;;;;4154351;28;20459;-66
2022/06/19 04:59:49;;;;;;;0.88;0.60;;;28.70;67.80;;;;;;4145513;28;20504;-69
2022/06/19 05:01:50;;;;;;;1.95;0.70;;;28.90;67.60;;;;;;4156709;28;20980;-66
2022/06/19 05:03:55;;;;;;;1.88;1.40;;;28.90;67.10;;;;;;4151113;28;20510;-64
2022/06/19 05:05:56;;;;;;;5.68;1.10;;;29.20;67.00;;;;;;4139350;28;20119;-70
2022/06/19 05:07:57;;;;;;;0.88;0.70;;;29.40;66.50;;;;;;4140834;28;20088;-66
2022/06/19 05:09:58;;;;;;;1.75;0.60;;;29.40;66.20;;;;;;4140134;28;20502;-65
2022/06/19 05:11:59;;;;;;;1.70;0.65;;;29.60;65.90;;;;;;4140634;28;20836;-65
2022/06/19 05:14:01;;;;;;;1.48;0.60;;;29.80;66.00;;;;;;4138716;28;20041;-65
2022/06/19 05:16:06;;;;;;;2.83;0.95;;;29.80;65.40;;;;;;4140193;28;20034;-64
2022/06/19 05:18:08;;;;;;;3.00;0.60;;;30.00;65.10;;;;;;4140119;28;20042;-64
2022/06/19 05:20:09;;;;;;;1.65;0.57;;;30.00;65.00;;;;;;4140978;28;21165;-64
2022/06/19 05:22:11;;;;;;;1.40;0.93;;;29.80;64.70;;;;;;4140277;28;20878;-64
2022/06/19 05:24:12;;;;;;;5.45;0.70;;;29.70;64.70;;;;;;4149502;28;20112;-67
2022/06/19 05:26:26;;;;;;;1.27;0.50;;;29.60;64.90;;;;;;4156044;28;20053;-65
2022/06/19 05:28:29;;;;;;;2.00;0.65;;;29.90;64.10;;;;;;4156065;28;20132;-66
2022/06/19 05:30:31;;;;;;;2.58;0.80;;;30.00;64.40;;;;;;4156178;28;20053;-63
2022/06/19 05:32:32;;;;;;;0.73;0.52;;;30.30;64.10;;;;;;4156370;28;20029;-67
2022/06/19 05:34:36;;;;;;;3.08;1.05;;;30.00;63.60;;;;;;4156020;28;20026;-68
2022/06/19 05:36:37;;;;;;;0.77;0.52;;;30.00;63.50;;;;;;4143168;28;20099;-66
2022/06/19 05:38:39;;;;;;;0.93;0.70;;;30.00;63.50;;;;;;4155935;28;20042;-64
2022/06/19 05:40:40;;;;;;;1.60;0.60;;;30.40;63.20;;;;;;4156169;28;20041;-63
2022/06/19 05:42:42;;;;;;;0.90;0.63;;;30.80;62.80;;;;;;4156470;28;20025;-65
2022/06/19 05:44:43;;;;;;;2.15;0.80;;;30.60;62.30;;;;;;4155918;28;20087;-65
2022/06/19 05:46:47;;;;;;;0.73;0.68;;;30.50;62.30;;;;;;4155812;28;20037;-64
2022/06/19 05:48:49;;;;;;;3.15;0.77;;;30.20;62.50;;;;;;4151917;28;20149;-65
2022/06/19 05:51:21;;;;;;;1.75;0.70;;;30.30;62.70;;;;;;4138906;28;20485;-65
2022/06/19 05:53:22;;;;;;;1.13;0.68;;;30.40;61.70;;;;;;4140296;28;20093;-64
2022/06/19 05:55:23;;;;;;;3.47;0.80;;;30.70;62.20;;;;;;4139445;28;20033;-64
2022/06/19 05:57:24;;;;;;;1.58;0.60;;;30.90;62.10;;;;;;4147691;28;20054;-63
2022/06/19 05:59:25;;;;;;;1.77;0.80;;;30.30;62.30;;;;;;4139025;28;20046;-65
2022/06/19 06:01:30;;;;;;;1.35;0.88;;;30.20;62.80;;;;;;4139385;28;20490;-70
2022/06/19 06:03:32;;;;;;;5.45;0.73;;;29.90;63.00;;;;;;4139697;28;20413;-65
2022/06/19 06:05:33;;;;;;;2.90;0.57;;;29.10;63.60;;;;;;4139787;28;20475;-67
2022/06/19 06:07:34;;;;;;;1.05;0.70;;;29.00;64.10;;;;;;4139738;28;20573;-68
2022/06/19 06:09:36;;;;;;;1.15;0.57;;;28.40;64.80;;;;;;4139310;28;20038;-65
2022/06/19 06:11:37;;;;;;;3.03;0.70;;;27.80;65.60;;;;;;4140123;28;20092;-66
2022/06/19 06:13:38;;;;;;;1.30;0.63;;;27.20;66.30;;;;;;4152732;28;20025;-67
2022/06/19 06:15:40;;;;;;;1.98;0.90;;;26.80;67.00;;;;;;4155696;28;20059;-70
2022/06/19 06:17:41;;;;;;;2.75;0.80;;;26.40;67.30;;;;;;4155639;28;20103;-66
2022/06/19 06:19:42;;;;;;;3.25;0.82;;;26.10;67.60;;;;;;4155562;28;20033;-65
2022/06/19 06:21:43;;;;;;;3.55;0.80;;;26.10;68.10;;;;;;4155727;28;20071;-69
2022/06/19 06:23:44;;;;;;;8.18;1.23;;;26.10;68.10;;;;;;4154808;28;20501;-65
2022/06/19 06:25:45;;;;;;;6.57;1.45;;;26.40;67.70;;;;;;4146598;28;20077;-63
2022/06/19 06:27:47;;;;;;;8.95;2.25;;;26.80;67.70;;;;;;4139095;28;20042;-65
2022/06/19 06:29:48;;;;;;;12.48;2.42;;;27.30;67.30;;;;;;4139556;28;20092;-67
2022/06/19 06:31:50;;;;;;;12.82;1.58;;;27.50;66.70;;;;;;4139245;28;20425;-66
2022/06/19 06:33:51;;;;;;;19.27;2.80;;;27.80;66.60;;;;;;4139917;28;20042;-65
2022/06/19 06:35:53;;;;;;;14.10;3.95;;;28.00;66.40;;;;;;4139743;28;20038;-65
2022/06/19 06:38:01;;;;;;;12.75;1.63;;;28.20;66.20;;;;;;4140847;28;20502;-68
2022/06/19 06:40:07;;;;;;;8.73;2.42;;;28.50;66.20;;;;;;4155294;28;20064;-65
2022/06/19 06:42:09;;;;;;;9.30;1.60;;;28.70;66.20;;;;;;4155140;28;20076;-66
2022/06/19 06:44:13;;;;;;;9.02;2.03;;;28.80;65.90;;;;;;4154866;28;20034;-67
2022/06/19 06:46:22;;;;;;;5.40;1.80;;;28.80;65.90;;;;;;4155276;28;20053;-65
2022/06/19 06:48:23;;;;;;;8.13;1.98;;;29.20;65.30;;;;;;4139219;28;20045;-64
2022/06/19 06:50:24;;;;;;;4.68;1.10;;;29.20;65.20;;;;;;4138991;28;20073;-64
2022/06/19 06:52:25;;;;;;;4.47;1.40;;;28.80;65.50;;;;;;4138851;28;20038;-66
2022/06/19 06:54:28;;;;;;;8.45;1.50;;;28.40;66.00;;;;;;4137720;28;20042;-70
2022/06/19 06:56:32;;;;;;;5.05;1.30;;;28.30;66.60;;;;;;4139201;28;20077;-66
2022/06/19 06:58:33;;;;;;;5.18;1.30;;;28.50;66.50;;;;;;4139067;28;20449;-66
2022/06/19 07:00:34;;;;;;;7.00;1.17;;;28.60;67.30;;;;;;4189446;22;20497;-66
2022/06/19 07:02:36;;;;;;;6.43;1.17;;;28.70;66.50;;;;;;4188873;28;20073;-66
2022/06/19 07:04:38;;;;;;;5.47;1.27;;;28.80;66.10;;;;;;4190510;28;20507;-64
2022/06/19 07:06:39;;;;;;;4.30;1.02;;;29.00;66.00;;;;;;4206565;28;20109;-64
2022/06/19 07:08:41;;;;;;;1.88;1.00;;;29.20;65.70;;;;;;4203894;28;20096;-66
2022/06/19 07:10:42;;;;;;;3.30;0.77;;;29.30;65.50;;;;;;4206490;28;20028;-71
2022/06/19 07:12:43;;;;;;;2.05;0.90;;;29.20;65.40;;;;;;4205439;28;20081;-69
2022/06/19 07:14:44;;;;;;;3.67;1.30;;;28.60;65.30;;;;;;4205760;28;20506;-70
2022/06/19 07:16:45;;;;;;;1.35;0.68;;;28.00;66.00;;;;;;4192387;28;20094;-67
2022/06/19 07:18:47;;;;;;;6.15;0.90;;;27.70;66.90;;;;;;4189179;28;20041;-68
2022/06/19 07:20:48;;;;;;;1.77;0.85;;;27.60;66.80;;;;;;4188813;28;20566;-67
2022/06/19 07:22:49;;;;;;;4.03;2.33;;;26.90;66.70;;;;;;4189340;28;20720;-69
2022/06/19 07:24:50;;;;;;;3.45;1.60;;;26.30;67.60;;;;;;4187975;28;20028;-68
2022/06/19 07:26:52;;;;;;;7.72;1.80;;;26.00;68.20;;;;;;4191434;28;20090;-65
2022/06/19 07:28:53;;;;;;;1.77;1.13;;;25.90;68.40;;;;;;4191302;28;20126;-65
2022/06/19 07:30:55;;;;;;;2.42;0.98;;;25.50;68.90;;;;;;4192551;28;20439;-72
2022/06/19 07:32:56;;;;;;;6.50;1.50;;;25.60;68.60;;;;;;4191450;28;20020;-70
2022/06/19 07:34:57;;;;;;;1.90;1.48;;;25.70;68.80;;;;;;4192155;28;20093;-71
2022/06/19 07:36:59;;;;;;;2.38;0.95;;;25.60;69.20;;;;;;4192495;28;20063;-66
2022/06/19 07:39:00;;;;;;;3.35;0.80;;;25.40;69.20;;;;;;4191677;28;20044;-68
2022/06/19 07:41:02;;;;;;;4.38;0.85;;;25.50;68.80;;;;;;4204579;28;20473;-64
2022/06/19 07:43:06;;;;;;;1.10;0.77;;;25.20;69.00;;;;;;4208026;28;20043;-68
2022/06/19 07:45:08;;;;;;;2.22;1.02;;;25.20;69.30;;;;;;4199652;28;20063;-65
2022/06/19 07:51:51;;;;;;;2.00;1.02;;;25.90;69.00;;;;;;4190847;28;20110;-67
2022/06/19 07:53:52;;;;;;;2.30;0.82;;;26.00;69.30;;;;;;4192388;28;20032;-69
2022/06/19 07:55:53;;;;;;;0.77;0.77;;;26.00;69.50;;;;;;4190408;28;20029;-64
2022/06/19 07:57:55;;;;;;;1.10;0.82;;;26.10;69.90;;;;;;4192489;28;20045;-67
2022/06/19 07:59:56;;;;;;;3.50;0.93;;;25.90;70.20;;;;;;4200194;28;20044;-66
2022/06/19 08:01:57;;;;;;;1.23;1.08;;;25.80;70.80;;;;;;4209088;28;20036;-66
2022/06/19 08:03:58;;;;;;;1.67;0.90;;;25.80;70.80;;;;;;4207522;28;20047;-69
2022/06/19 08:06:00;;;;;;;2.05;0.90;;;25.70;71.20;;;;;;4197237;28;20024;-65
2022/06/19 08:08:05;;;;;;;1.38;0.90;;;25.70;71.30;;;;;;4190901;28;20498;-65
2022/06/19 08:10:08;;;;;;;2.97;0.80;;;25.60;71.60;;;;;;4198271;28;20462;-65
2022/06/19 08:12:10;;;;;;;2.35;1.73;;;25.60;72.90;;;;;;4207501;28;20028;-65
2022/06/19 08:14:11;;;;;;;2.70;0.90;;;25.70;72.50;;;;;;4208792;28;20032;-70
2022/06/19 08:16:13;;;;;;;1.73;0.75;;;25.70;72.80;;;;;;4207512;28;20450;-64
2022/06/19 08:18:15;;;;;;;3.25;1.15;;;25.90;72.70;;;;;;4208003;28;20480;-70
2022/06/19 08:20:17;;;;;;;2.63;1.02;;;25.90;72.90;;;;;;4196465;28;20411;-68
2022/06/19 08:22:18;;;;;;;1.77;1.27;;;26.00;73.00;;;;;;4191106;28;20086;-64
2022/06/19 08:24:21;;;;;;;1.58;0.88;;;26.20;72.90;;;;;;4190700;28;20052;-64
2022/06/19 08:26:22;;;;;;;0.98;0.77;;;26.30;72.80;;;;;;4188755;28;20532;-65
2022/06/19 08:28:27;;;;;;;1.42;1.30;;;26.50;72.50;;;;;;4191797;28;20498;-64
2022/06/19 08:30:32;;;;;;;1.77;0.90;;;26.70;72.50;;;;;;4190575;28;20013;-64
2022/06/19 08:32:33;;;;;;;2.25;1.15;;;26.60;72.90;;;;;;4191919;28;20040;-65
2022/06/19 08:34:34;;;;;;;3.13;0.90;;;26.40;73.30;;;;;;4190423;28;20093;-65
2022/06/19 08:36:36;;;;;;;1.33;0.90;;;26.10;73.60;;;;;;4207450;28;20436;-65
2022/06/19 08:38:45;;;;;;;1.30;0.80;;;25.90;74.00;;;;;;4205510;28;20052;-68
2022/06/19 08:40:46;;;;;;;1.90;0.88;;;25.80;74.60;;;;;;4207715;28;20023;-64
2022/06/19 08:43:11;;;;;;;1.65;0.70;;;25.70;74.80;;;;;;4206508;28;20492;-64
2022/06/19 08:45:31;;;;;;;1.35;0.93;;;25.80;74.70;;;;;;4207986;28;20040;-64
2022/06/19 08:48:13;;;;;;;2.70;0.70;;;26.00;74.30;;;;;;4207101;28;20032;-64
2022/06/19 08:50:44;;;;;;;1.58;0.80;;;26.10;73.50;;;;;;4200779;28;20078;-65
2022/06/19 08:53:12;;;;;;;1.55;0.75;;;26.10;73.30;;;;;;4190687;28;20055;-65
2022/06/19 08:55:28;;;;;;;0.82;0.63;;;26.10;73.20;;;;;;4195041;28;20484;-65
2022/06/19 08:57:53;;;;;;;1.25;0.80;;;26.10;72.80;;;;;;4207676;28;20545;-71
2022/06/19 09:00:17;;;;;;;1.83;0.93;;;26.00;71.90;;;;;;4206288;28;20044;-69
2022/06/19 09:02:25;;;;;;;11.73;5.60;;;25.90;71.60;;;;;;4174081;28;20079;-67
2022/06/19 09:07:36;;;;;;;0.50;0.50;;;26.40;71.90;;;;;;4190921;28;20568;-66
2022/06/19 09:10:19;;;;;;;1.38;0.77;;;26.40;71.40;;;;;;4189819;28;20046;-65
2022/06/19 09:12:29;;;;;;;2.42;0.80;;;26.20;71.00;;;;;;4199507;28;20438;-66
2022/06/19 09:14:53;;;;;;;;;;;26.20;70.90;;;;;;4191737;28;20102;-65
2022/06/19 09:17:10;;;;;;;5.68;0.73;;;26.00;70.70;;;;;;4169380;28;20334;-69
2022/06/19 09:19:39;;;;;;;1.15;0.60;;;25.90;70.60;;;;;;4190347;28;20040;-67
2022/06/19 09:21:46;;;;;;;0.50;0.43;;;25.80;71.00;;;;;;4189034;28;20044;-66
2022/06/19 09:24:28;;;;;;;2.97;0.60;;;26.10;70.90;;;;;;4207105;28;20082;-65
2022/06/19 09:26:41;;;;;;;3.35;0.90;;;26.50;70.10;;;;;;4205979;28;20430;-65
2022/06/19 09:28:49;;;;;;;1.38;0.60;;;26.70;69.80;;;;;;4206702;28;20093;-69
2022/06/19 09:31:26;;;;;;;0.60;0.60;;;26.90;69.60;;;;;;4205864;28;20113;-65
2022/06/19 09:33:34;;;;;;;2.03;0.77;;;26.90;68.20;;;;;;4206285;28;20098;-65
2022/06/19 09:35:41;;;;;;;1.05;0.80;;;26.80;69.30;;;;;;4205688;28;20040;-68
2022/06/19 09:37:55;;;;;;;1.45;0.60;;;26.90;69.10;;;;;;4194061;28;20049;-65
2022/06/19 09:40:19;;;;;;;0.85;0.63;;;26.90;69.20;;;;;;4188820;28;20818;-64
2022/06/19 09:42:36;;;;;;;1.27;0.80;;;27.20;69.80;;;;;;4189274;28;20024;-65
2022/06/19 09:44:39;;;;;;;0.80;0.80;;;27.40;69.20;;;;;;4189669;28;20097;-65
2022/06/19 09:46:46;;;;;;;1.67;0.80;;;27.50;68.80;;;;;;4189082;28;20025;-66
2022/06/19 09:49:34;;;;;;;1.42;0.60;;;27.40;68.10;;;;;;4188910;28;20524;-66
2022/06/19 09:52:01;;;;;;;1.13;0.65;;;27.20;66.90;;;;;;4183327;28;20044;-68
2022/06/19 09:54:17;;;;;;;0.50;0.50;;;26.90;67.70;;;;;;4190543;28;20449;-67
2022/06/19 09:56:39;;;;;;;1.73;0.63;;;27.10;68.30;;;;;;4189333;28;20044;-71
2022/06/19 09:59:17;;;;;;;0.93;0.80;;;27.30;68.00;;;;;;4190332;28;20554;-70
2022/06/19 10:01:19;;;;;;;1.75;0.55;;;27.60;66.70;;;;;;4172598;28;20053;-66
2022/06/19 10:03:39;;;;;;;2.03;0.55;;;27.70;67.30;;;;;;4175412;28;20082;-65
2022/06/19 10:05:49;;;;;;;2.28;0.60;;;27.70;66.40;;;;;;4183669;28;20397;-65
2022/06/19 10:07:59;;;;;;;1.58;0.70;;;27.60;67.00;;;;;;4190496;28;20559;-65
2022/06/19 10:10:36;;;;;;;1.23;0.60;;;27.70;67.00;;;;;;4188867;28;20951;-65
2022/06/19 10:12:46;;;;;;;1.05;0.88;;;27.70;65.50;;;;;;4196905;28;20082;-69
2022/06/19 10:14:50;;;;;;;2.80;0.90;;;27.60;66.40;;;;;;4189454;28;20040;-65
2022/06/19 10:17:04;;;;;;;0.98;0.50;;;27.60;67.00;;;;;;4189620;28;20041;-66
2022/06/19 10:19:23;;;;;;;2.65;0.60;;;27.90;66.90;;;;;;4188944;28;20090;-67
2022/06/19 10:24:07;;;;;;;3.17;0.90;;;27.60;65.70;;;;;;4199518;28;20438;-69
2022/06/19 10:26:42;;;;;;;3.85;1.08;;;27.50;65.30;;;;;;4196042;28;20024;-65
2022/06/19 10:28:49;;;;;;;1.92;0.63;;;27.50;66.00;;;;;;4189455;28;20032;-70
2022/06/19 10:30:56;;;;;;;1.70;0.80;;;27.60;65.80;;;;;;4187300;28;20065;-63
2022/06/19 10:33:18;;;;;;;0.95;0.55;;;27.50;66.20;;;;;;4189187;28;20062;-65
2022/06/19 10:35:32;;;;;;;1.45;0.55;;;27.30;66.10;;;;;;4189520;28;20140;-64
2022/06/19 10:38:00;;;;;;;0.60;0.60;;;27.10;66.10;;;;;;4194856;28;20032;-66
2022/06/19 10:40:19;;;;;;;0.50;0.30;;;27.00;66.40;;;;;;4196574;28;20530;-63
2022/06/19 10:43:05;;;;;;;0.88;0.50;;;27.00;66.70;;;;;;4191358;28;20050;-62
2022/06/19 10:45:28;;;;;;;1.20;0.43;;;27.10;66.60;;;;;;4194659;28;20044;-70
2022/06/19 10:47:29;;;;;;;1.20;0.52;;;27.10;66.60;;;;;;4194854;28;20028;-70
2022/06/19 10:49:43;;;;;;;0.70;0.30;;;26.90;66.50;;;;;;4189427;28;20094;-73
2022/06/19 10:52:01;;;;;;;2.42;1.02;;;26.80;66.20;;;;;;4195536;28;20028;-66
2022/06/19 10:54:23;;;;;;;0.57;0.50;;;26.60;66.60;;;;;;4194853;28;20502;-64
2022/06/19 10:56:27;;;;;;;1.00;0.30;;;26.50;65.90;;;;;;4189459;28;20488;-65
2022/06/19 10:58:30;;;;;;;2.55;0.73;;;26.40;65.80;;;;;;4188163;28;20040;-66
2022/06/19 11:00:31;;;;;;;1.00;0.57;;;26.40;66.10;;;;;;4194061;28;20082;-66
2022/06/19 11:05:25;;;;;;;1.63;1.10;;;26.70;65.60;;;;;;4193909;28;20120;-65
2022/06/19 11:07:29;;;;;;;2.33;0.40;;;26.90;65.30;;;;;;4196649;28;20085;-66
2022/06/19 11:09:39;;;;;;;1.90;0.95;;;26.80;65.30;;;;;;4202574;28;20481;-65
2022/06/19 11:11:42;;;;;;;3.65;0.50;;;26.80;65.30;;;;;;4192482;28;20029;-65